sensor_id;sensor_type;location;lat;lon;timestamp;P1;durP1;ratioP1;P2;durP2;ratioP2
20699;SDS011;10511;51.232;9.420;2023-08-24T00:00:23;0.70;;;0.70;;
20699;SDS011;10511;51.232;9.420;2023-08-24T00:02:50;0.60;;;0.60;;
20699;SDS011;10511;51.232;9.420;2023-08-24T00:05:17;0.60;;;0.60;;
20699;SDS011;10511;51.232;9.420;2023-08-24T00:07:44;0.60;;;0.60;;
20699;SDS011;10511;51.232;9.420;2023-08-24T00:10:14;0.70;;;0.70;;
20699;SDS011;10511;51.232;9.420;2023-08-24T00:12:41;0.70;;;0.70;;
20699;SDS011;10511;51.232;9.420;2023-08-24T00:15:08;0.60;;;0.60;;
20699;SDS011;10511;51.232;9.420;2023-08-24T00:17:36;0.60;;;0.60;;
20699;SDS011;10511;51.232;9.420;2023-08-24T00:20:04;0.63;;;0.63;;
20699;SDS011;10511;51.232;9.420;2023-08-24T00:22:35;0.70;;;0.70;;
20699;SDS011;10511;51.232;9.420;2023-08-24T00:25:03;0.67;;;0.67;;
20699;SDS011;10511;51.232;9.420;2023-08-24T00:27:32;0.60;;;0.60;;
20699;SDS011;10511;51.232;9.420;2023-08-24T00:30:00;0.70;;;0.70;;
20699;SDS011;10511;51.232;9.420;2023-08-24T00:32:28;0.63;;;0.63;;
20699;SDS011;10511;51.232;9.420;2023-08-24T00:34:55;0.70;;;0.70;;
20699;SDS011;10511;51.232;9.420;2023-08-24T00:37:22;0.70;;;0.70;;
20699;SDS011;10511;51.232;9.420;2023-08-24T00:39:49;0.70;;;0.70;;
20699;SDS011;10511;51.232;9.420;2023-08-24T00:42:16;0.70;;;0.70;;
20699;SDS011;10511;51.232;9.420;2023-08-24T00:44:45;0.63;;;0.63;;
20699;SDS011;10511;51.232;9.420;2023-08-24T00:47:12;0.70;;;0.70;;
20699;SDS011;10511;51.232;9.420;2023-08-24T00:49:39;0.70;;;0.70;;
20699;SDS011;10511;51.232;9.420;2023-08-24T00:52:06;0.70;;;0.70;;
20699;SDS011;10511;51.232;9.420;2023-08-24T00:54:33;0.70;;;0.70;;
20699;SDS011;10511;51.232;9.420;2023-08-24T00:57:01;0.70;;;0.70;;
20699;SDS011;10511;51.232;9.420;2023-08-24T00:59:29;0.80;;;0.80;;
20699;SDS011;10511;51.232;9.420;2023-08-24T01:01:57;0.80;;;0.80;;
20699;SDS011;10511;51.232;9.420;2023-08-24T01:04:25;0.70;;;0.70;;
20699;SDS011;10511;51.232;9.420;2023-08-24T01:06:52;0.70;;;0.70;;
20699;SDS011;10511;51.232;9.420;2023-08-24T01:09:19;0.70;;;0.70;;
20699;SDS011;10511;51.232;9.420;2023-08-24T01:11:49;0.70;;;0.70;;
20699;SDS011;10511;51.232;9.420;2023-08-24T01:14:30;0.80;;;0.80;;
20699;SDS011;10511;51.232;9.420;2023-08-24T01:17:09;0.70;;;0.70;;
20699;SDS011;10511;51.232;9.420;2023-08-24T01:19:39;0.70;;;0.70;;
20699;SDS011;10511;51.232;9.420;2023-08-24T01:22:13;0.70;;;0.70;;
20699;SDS011;10511;51.232;9.420;2023-08-24T01:24:53;0.70;;;0.70;;
20699;SDS011;10511;51.232;9.420;2023-08-24T01:27:28;0.70;;;0.70;;
20699;SDS011;10511;51.232;9.420;2023-08-24T01:30:00;0.70;;;0.70;;
20699;SDS011;10511;51.232;9.420;2023-08-24T01:32:29;0.70;;;0.70;;
20699;SDS011;10511;51.232;9.420;2023-08-24T01:34:57;0.70;;;0.70;;
20699;SDS011;10511;51.232;9.420;2023-08-24T01:37:24;0.70;;;0.70;;
20699;SDS011;10511;51.232;9.420;2023-08-24T01:39:54;0.70;;;0.70;;
20699;SDS011;10511;51.232;9.420;2023-08-24T01:42:30;0.70;;;0.70;;
20699;SDS011;10511;51.232;9.420;2023-08-24T01:44:58;0.70;;;0.70;;
20699;SDS011;10511;51.232;9.420;2023-08-24T01:47:32;0.70;;;0.70;;
20699;SDS011;10511;51.232;9.420;2023-08-24T01:50:01;0.70;;;0.70;;
20699;SDS011;10511;51.232;9.420;2023-08-24T01:52:29;0.70;;;0.70;;
20699;SDS011;10511;51.232;9.420;2023-08-24T01:54:57;0.70;;;0.70;;
20699;SDS011;10511;51.232;9.420;2023-08-24T01:57:24;0.70;;;0.70;;
20699;SDS011;10511;51.232;9.420;2023-08-24T01:59:53;0.70;;;0.70;;
20699;SDS011;10511;51.232;9.420;2023-08-24T02:02:21;0.70;;;0.70;;
20699;SDS011;10511;51.232;9.420;2023-08-24T02:04:48;0.70;;;0.70;;
20699;SDS011;10511;51.232;9.420;2023-08-24T02:07:15;0.70;;;0.70;;
20699;SDS011;10511;51.232;9.420;2023-08-24T02:09:42;0.70;;;0.70;;
20699;SDS011;10511;51.232;9.420;2023-08-24T02:12:09;0.80;;;0.80;;
20699;SDS011;10511;51.232;9.420;2023-08-24T02:14:36;0.70;;;0.70;;
20699;SDS011;10511;51.232;9.420;2023-08-24T02:17:04;0.60;;;0.60;;
20699;SDS011;10511;51.232;9.420;2023-08-24T02:19:31;0.70;;;0.70;;
20699;SDS011;10511;51.232;9.420;2023-08-24T02:21:58;0.70;;;0.70;;
20699;SDS011;10511;51.232;9.420;2023-08-24T02:24:25;0.70;;;0.70;;
20699;SDS011;10511;51.232;9.420;2023-08-24T02:26:52;0.70;;;0.70;;
20699;SDS011;10511;51.232;9.420;2023-08-24T02:29:19;0.70;;;0.70;;
20699;SDS011;10511;51.232;9.420;2023-08-24T02:31:48;0.70;;;0.70;;
20699;SDS011;10511;51.232;9.420;2023-08-24T02:34:17;0.70;;;0.70;;
20699;SDS011;10511;51.232;9.420;2023-08-24T02:36:44;0.70;;;0.70;;
20699;SDS011;10511;51.232;9.420;2023-08-24T02:39:11;0.70;;;0.70;;
20699;SDS011;10511;51.232;9.420;2023-08-24T02:41:38;0.70;;;0.70;;
20699;SDS011;10511;51.232;9.420;2023-08-24T02:44:05;0.70;;;0.70;;
20699;SDS011;10511;51.232;9.420;2023-08-24T02:46:32;0.70;;;0.70;;
20699;SDS011;10511;51.232;9.420;2023-08-24T02:48:59;0.70;;;0.70;;
20699;SDS011;10511;51.232;9.420;2023-08-24T02:51:27;0.70;;;0.70;;
20699;SDS011;10511;51.232;9.420;2023-08-24T02:53:56;0.70;;;0.70;;
20699;SDS011;10511;51.232;9.420;2023-08-24T02:56:23;0.60;;;0.60;;
20699;SDS011;10511;51.232;9.420;2023-08-24T02:58:50;0.70;;;0.70;;
20699;SDS011;10511;51.232;9.420;2023-08-24T03:01:17;0.60;;;0.60;;
20699;SDS011;10511;51.232;9.420;2023-08-24T03:03:44;0.70;;;0.70;;
20699;SDS011;10511;51.232;9.420;2023-08-24T03:06:11;0.70;;;0.70;;
20699;SDS011;10511;51.232;9.420;2023-08-24T03:08:40;0.70;;;0.70;;
20699;SDS011;10511;51.232;9.420;2023-08-24T03:11:07;0.70;;;0.70;;
20699;SDS011;10511;51.232;9.420;2023-08-24T03:13:35;0.70;;;0.70;;
20699;SDS011;10511;51.232;9.420;2023-08-24T03:16:03;0.60;;;0.60;;
20699;SDS011;10511;51.232;9.420;2023-08-24T03:18:30;0.70;;;0.70;;
20699;SDS011;10511;51.232;9.420;2023-08-24T03:20:58;0.70;;;0.70;;
20699;SDS011;10511;51.232;9.420;2023-08-24T03:23:25;0.70;;;0.70;;
20699;SDS011;10511;51.232;9.420;2023-08-24T03:25:54;0.70;;;0.70;;
20699;SDS011;10511;51.232;9.420;2023-08-24T03:28:22;0.80;;;0.80;;
20699;SDS011;10511;51.232;9.420;2023-08-24T03:30:49;0.70;;;0.70;;
20699;SDS011;10511;51.232;9.420;2023-08-24T03:33:19;0.67;;;0.67;;
20699;SDS011;10511;51.232;9.420;2023-08-24T03:35:46;0.60;;;0.60;;
20699;SDS011;10511;51.232;9.420;2023-08-24T03:38:13;0.70;;;0.70;;
20699;SDS011;10511;51.232;9.420;2023-08-24T03:40:40;0.70;;;0.70;;
20699;SDS011;10511;51.232;9.420;2023-08-24T03:43:08;0.70;;;0.70;;
20699;SDS011;10511;51.232;9.420;2023-08-24T03:45:35;0.70;;;0.70;;
20699;SDS011;10511;51.232;9.420;2023-08-24T03:48:03;0.70;;;0.70;;
20699;SDS011;10511;51.232;9.420;2023-08-24T03:50:30;0.70;;;0.70;;
20699;SDS011;10511;51.232;9.420;2023-08-24T03:52:57;0.70;;;0.70;;
20699;SDS011;10511;51.232;9.420;2023-08-24T03:55:24;0.70;;;0.70;;
20699;SDS011;10511;51.232;9.420;2023-08-24T03:57:51;0.70;;;0.70;;
20699;SDS011;10511;51.232;9.420;2023-08-24T04:00:21;0.70;;;0.70;;
20699;SDS011;10511;51.232;9.420;2023-08-24T04:02:48;0.70;;;0.70;;
20699;SDS011;10511;51.232;9.420;2023-08-24T04:05:15;0.70;;;0.70;;
20699;SDS011;10511;51.232;9.420;2023-08-24T04:07:42;0.80;;;0.80;;
20699;SDS011;10511;51.232;9.420;2023-08-24T04:10:10;0.73;;;0.73;;
20699;SDS011;10511;51.232;9.420;2023-08-24T04:12:38;0.70;;;0.70;;
20699;SDS011;10511;51.232;9.420;2023-08-24T04:15:05;0.73;;;0.73;;
20699;SDS011;10511;51.232;9.420;2023-08-24T04:17:34;0.70;;;0.70;;
20699;SDS011;10511;51.232;9.420;2023-08-24T04:20:01;0.90;;;0.90;;
20699;SDS011;10511;51.232;9.420;2023-08-24T04:22:31;0.70;;;0.70;;
20699;SDS011;10511;51.232;9.420;2023-08-24T04:24:58;0.70;;;0.70;;
20699;SDS011;10511;51.232;9.420;2023-08-24T04:27:26;0.70;;;0.70;;
20699;SDS011;10511;51.232;9.420;2023-08-24T04:29:53;0.70;;;0.70;;
20699;SDS011;10511;51.232;9.420;2023-08-24T04:32:23;0.70;;;0.70;;
20699;SDS011;10511;51.232;9.420;2023-08-24T04:34:51;0.80;;;0.80;;
20699;SDS011;10511;51.232;9.420;2023-08-24T04:37:18;0.67;;;0.67;;
20699;SDS011;10511;51.232;9.420;2023-08-24T04:39:45;0.70;;;0.70;;
20699;SDS011;10511;51.232;9.420;2023-08-24T04:42:12;0.73;;;0.73;;
20699;SDS011;10511;51.232;9.420;2023-08-24T04:44:39;0.80;;;0.80;;
20699;SDS011;10511;51.232;9.420;2023-08-24T04:47:06;0.70;;;0.70;;
20699;SDS011;10511;51.232;9.420;2023-08-24T04:49:33;0.70;;;0.70;;
20699;SDS011;10511;51.232;9.420;2023-08-24T04:52:03;0.70;;;0.70;;
20699;SDS011;10511;51.232;9.420;2023-08-24T04:54:30;0.70;;;0.70;;
20699;SDS011;10511;51.232;9.420;2023-08-24T04:56:57;0.70;;;0.70;;
20699;SDS011;10511;51.232;9.420;2023-08-24T04:59:24;0.70;;;0.70;;
20699;SDS011;10511;51.232;9.420;2023-08-24T05:01:51;0.70;;;0.70;;
20699;SDS011;10511;51.232;9.420;2023-08-24T05:04:18;0.70;;;0.70;;
20699;SDS011;10511;51.232;9.420;2023-08-24T05:06:45;0.80;;;0.80;;
20699;SDS011;10511;51.232;9.420;2023-08-24T05:09:13;0.70;;;0.70;;
20699;SDS011;10511;51.232;9.420;2023-08-24T05:11:40;0.70;;;0.70;;
20699;SDS011;10511;51.232;9.420;2023-08-24T05:14:07;0.70;;;0.70;;
20699;SDS011;10511;51.232;9.420;2023-08-24T05:16:34;0.70;;;0.70;;
20699;SDS011;10511;51.232;9.420;2023-08-24T05:19:01;0.70;;;0.70;;
20699;SDS011;10511;51.232;9.420;2023-08-24T05:21:28;0.70;;;0.70;;
20699;SDS011;10511;51.232;9.420;2023-08-24T05:23:55;0.70;;;0.70;;
20699;SDS011;10511;51.232;9.420;2023-08-24T05:26:23;0.80;;;0.80;;
20699;SDS011;10511;51.232;9.420;2023-08-24T05:28:52;0.70;;;0.70;;
20699;SDS011;10511;51.232;9.420;2023-08-24T05:31:19;0.70;;;0.70;;
20699;SDS011;10511;51.232;9.420;2023-08-24T05:33:46;0.70;;;0.70;;
20699;SDS011;10511;51.232;9.420;2023-08-24T05:36:13;0.70;;;0.70;;
20699;SDS011;10511;51.232;9.420;2023-08-24T05:38:40;0.63;;;0.63;;
20699;SDS011;10511;51.232;9.420;2023-08-24T05:41:11;0.70;;;0.70;;
20699;SDS011;10511;51.232;9.420;2023-08-24T05:43:40;0.70;;;0.70;;
20699;SDS011;10511;51.232;9.420;2023-08-24T05:46:07;0.70;;;0.70;;
20699;SDS011;10511;51.232;9.420;2023-08-24T05:48:34;0.60;;;0.60;;
20699;SDS011;10511;51.232;9.420;2023-08-24T05:51:01;0.70;;;0.70;;
20699;SDS011;10511;51.232;9.420;2023-08-24T05:53:28;0.70;;;0.70;;
20699;SDS011;10511;51.232;9.420;2023-08-24T05:55:57;0.80;;;0.80;;
20699;SDS011;10511;51.232;9.420;2023-08-24T05:58:24;0.70;;;0.70;;
20699;SDS011;10511;51.232;9.420;2023-08-24T06:00:59;0.60;;;0.60;;
20699;SDS011;10511;51.232;9.420;2023-08-24T06:03:27;0.60;;;0.60;;
20699;SDS011;10511;51.232;9.420;2023-08-24T06:05:54;0.60;;;0.60;;
20699;SDS011;10511;51.232;9.420;2023-08-24T06:08:27;0.60;;;0.60;;
20699;SDS011;10511;51.232;9.420;2023-08-24T06:10:54;0.60;;;0.60;;
20699;SDS011;10511;51.232;9.420;2023-08-24T06:13:21;0.70;;;0.70;;
20699;SDS011;10511;51.232;9.420;2023-08-24T06:15:48;0.63;;;0.63;;
20699;SDS011;10511;51.232;9.420;2023-08-24T06:18:23;0.70;;;0.70;;
20699;SDS011;10511;51.232;9.420;2023-08-24T06:20:50;0.70;;;0.70;;
20699;SDS011;10511;51.232;9.420;2023-08-24T06:23:17;0.70;;;0.70;;
20699;SDS011;10511;51.232;9.420;2023-08-24T06:25:45;0.70;;;0.70;;
20699;SDS011;10511;51.232;9.420;2023-08-24T06:28:12;0.70;;;0.70;;
20699;SDS011;10511;51.232;9.420;2023-08-24T06:30:39;0.70;;;0.70;;
20699;SDS011;10511;51.232;9.420;2023-08-24T06:33:08;0.70;;;0.70;;
20699;SDS011;10511;51.232;9.420;2023-08-24T06:35:37;0.70;;;0.70;;
20699;SDS011;10511;51.232;9.420;2023-08-24T06:38:04;0.60;;;0.60;;
20699;SDS011;10511;51.232;9.420;2023-08-24T06:40:31;0.70;;;0.70;;
20699;SDS011;10511;51.232;9.420;2023-08-24T06:42:58;0.67;;;0.67;;
20699;SDS011;10511;51.232;9.420;2023-08-24T06:45:25;0.70;;;0.70;;
20699;SDS011;10511;51.232;9.420;2023-08-24T06:47:52;0.70;;;0.70;;
20699;SDS011;10511;51.232;9.420;2023-08-24T06:50:19;0.70;;;0.70;;
20699;SDS011;10511;51.232;9.420;2023-08-24T06:52:47;0.70;;;0.70;;
20699;SDS011;10511;51.232;9.420;2023-08-24T06:55:14;0.67;;;0.67;;
20699;SDS011;10511;51.232;9.420;2023-08-24T06:57:41;0.70;;;0.70;;
20699;SDS011;10511;51.232;9.420;2023-08-24T07:00:09;0.70;;;0.70;;
20699;SDS011;10511;51.232;9.420;2023-08-24T07:02:40;0.70;;;0.70;;
20699;SDS011;10511;51.232;9.420;2023-08-24T07:05:07;0.60;;;0.60;;
20699;SDS011;10511;51.232;9.420;2023-08-24T07:07:34;0.60;;;0.60;;
20699;SDS011;10511;51.232;9.420;2023-08-24T07:10:03;0.70;;;0.70;;
20699;SDS011;10511;51.232;9.420;2023-08-24T07:12:31;0.70;;;0.70;;
20699;SDS011;10511;51.232;9.420;2023-08-24T07:14:58;0.60;;;0.60;;
20699;SDS011;10511;51.232;9.420;2023-08-24T07:17:25;0.60;;;0.60;;
20699;SDS011;10511;51.232;9.420;2023-08-24T07:19:52;0.60;;;0.60;;
20699;SDS011;10511;51.232;9.420;2023-08-24T07:22:19;0.60;;;0.60;;
20699;SDS011;10511;51.232;9.420;2023-08-24T07:24:46;0.60;;;0.60;;
20699;SDS011;10511;51.232;9.420;2023-08-24T07:27:18;0.70;;;0.70;;
20699;SDS011;10511;51.232;9.420;2023-08-24T07:29:46;0.70;;;0.70;;
20699;SDS011;10511;51.232;9.420;2023-08-24T07:32:13;0.70;;;0.70;;
20699;SDS011;10511;51.232;9.420;2023-08-24T07:34:40;0.70;;;0.70;;
20699;SDS011;10511;51.232;9.420;2023-08-24T07:37:07;0.60;;;0.60;;
20699;SDS011;10511;51.232;9.420;2023-08-24T07:39:34;0.70;;;0.70;;
20699;SDS011;10511;51.232;9.420;2023-08-24T07:42:08;0.60;;;0.60;;
20699;SDS011;10511;51.232;9.420;2023-08-24T07:44:36;0.60;;;0.60;;
20699;SDS011;10511;51.232;9.420;2023-08-24T07:47:03;0.60;;;0.60;;
20699;SDS011;10511;51.232;9.420;2023-08-24T07:49:30;0.63;;;0.63;;
20699;SDS011;10511;51.232;9.420;2023-08-24T07:51:57;0.60;;;0.60;;
20699;SDS011;10511;51.232;9.420;2023-08-24T07:54:24;0.67;;;0.67;;
20699;SDS011;10511;51.232;9.420;2023-08-24T07:56:51;0.60;;;0.60;;
20699;SDS011;10511;51.232;9.420;2023-08-24T07:59:18;0.60;;;0.60;;
20699;SDS011;10511;51.232;9.420;2023-08-24T08:01:46;0.70;;;0.70;;
20699;SDS011;10511;51.232;9.420;2023-08-24T08:04:13;0.60;;;0.60;;
20699;SDS011;10511;51.232;9.420;2023-08-24T08:06:40;0.60;;;0.60;;
20699;SDS011;10511;51.232;9.420;2023-08-24T08:09:07;0.70;;;0.70;;
20699;SDS011;10511;51.232;9.420;2023-08-24T08:11:34;0.60;;;0.60;;
20699;SDS011;10511;51.232;9.420;2023-08-24T08:14:01;0.70;;;0.70;;
20699;SDS011;10511;51.232;9.420;2023-08-24T08:16:29;0.60;;;0.60;;
20699;SDS011;10511;51.232;9.420;2023-08-24T08:18:57;0.60;;;0.60;;
20699;SDS011;10511;51.232;9.420;2023-08-24T08:21:24;0.63;;;0.63;;
20699;SDS011;10511;51.232;9.420;2023-08-24T08:23:51;0.50;;;0.50;;
20699;SDS011;10511;51.232;9.420;2023-08-24T08:26:19;0.60;;;0.60;;
20699;SDS011;10511;51.232;9.420;2023-08-24T08:28:46;0.60;;;0.60;;
20699;SDS011;10511;51.232;9.420;2023-08-24T08:31:13;0.60;;;0.60;;
20699;SDS011;10511;51.232;9.420;2023-08-24T08:33:40;0.60;;;0.60;;
20699;SDS011;10511;51.232;9.420;2023-08-24T08:36:08;0.60;;;0.60;;
20699;SDS011;10511;51.232;9.420;2023-08-24T08:38:35;0.70;;;0.70;;
20699;SDS011;10511;51.232;9.420;2023-08-24T08:41:02;0.60;;;0.60;;
20699;SDS011;10511;51.232;9.420;2023-08-24T08:43:30;0.70;;;0.70;;
20699;SDS011;10511;51.232;9.420;2023-08-24T08:45:57;0.70;;;0.70;;
20699;SDS011;10511;51.232;9.420;2023-08-24T08:48:25;0.70;;;0.70;;
20699;SDS011;10511;51.232;9.420;2023-08-24T08:50:53;0.70;;;0.70;;
20699;SDS011;10511;51.232;9.420;2023-08-24T08:53:23;0.70;;;0.70;;
20699;SDS011;10511;51.232;9.420;2023-08-24T08:55:51;0.70;;;0.70;;
20699;SDS011;10511;51.232;9.420;2023-08-24T08:58:19;0.70;;;0.70;;
20699;SDS011;10511;51.232;9.420;2023-08-24T09:00:47;0.70;;;0.70;;
20699;SDS011;10511;51.232;9.420;2023-08-24T09:03:16;0.60;;;0.60;;
20699;SDS011;10511;51.232;9.420;2023-08-24T09:05:44;0.60;;;0.60;;
20699;SDS011;10511;51.232;9.420;2023-08-24T09:08:13;0.60;;;0.60;;
20699;SDS011;10511;51.232;9.420;2023-08-24T09:10:43;0.70;;;0.70;;
20699;SDS011;10511;51.232;9.420;2023-08-24T09:13:10;0.70;;;0.70;;
20699;SDS011;10511;51.232;9.420;2023-08-24T09:15:37;0.60;;;0.60;;
20699;SDS011;10511;51.232;9.420;2023-08-24T09:18:04;0.70;;;0.70;;
20699;SDS011;10511;51.232;9.420;2023-08-24T09:20:31;0.63;;;0.63;;
20699;SDS011;10511;51.232;9.420;2023-08-24T09:23:00;0.60;;;0.60;;
20699;SDS011;10511;51.232;9.420;2023-08-24T09:25:28;0.60;;;0.60;;
20699;SDS011;10511;51.232;9.420;2023-08-24T09:27:59;0.60;;;0.60;;
20699;SDS011;10511;51.232;9.420;2023-08-24T09:30:28;0.60;;;0.60;;
20699;SDS011;10511;51.232;9.420;2023-08-24T09:33:00;0.60;;;0.60;;
20699;SDS011;10511;51.232;9.420;2023-08-24T09:35:28;0.60;;;0.60;;
20699;SDS011;10511;51.232;9.420;2023-08-24T09:37:55;0.60;;;0.60;;
20699;SDS011;10511;51.232;9.420;2023-08-24T09:40:23;0.60;;;0.60;;
20699;SDS011;10511;51.232;9.420;2023-08-24T09:42:51;0.60;;;0.60;;
20699;SDS011;10511;51.232;9.420;2023-08-24T09:45:19;0.60;;;0.60;;
20699;SDS011;10511;51.232;9.420;2023-08-24T09:47:49;0.60;;;0.60;;
20699;SDS011;10511;51.232;9.420;2023-08-24T09:50:17;0.60;;;0.60;;
20699;SDS011;10511;51.232;9.420;2023-08-24T09:52:44;0.60;;;0.60;;
20699;SDS011;10511;51.232;9.420;2023-08-24T09:55:16;0.60;;;0.60;;
20699;SDS011;10511;51.232;9.420;2023-08-24T09:57:47;0.60;;;0.60;;
20699;SDS011;10511;51.232;9.420;2023-08-24T10:00:20;0.60;;;0.60;;
20699;SDS011;10511;51.232;9.420;2023-08-24T10:02:50;0.50;;;0.50;;
20699;SDS011;10511;51.232;9.420;2023-08-24T10:05:20;0.50;;;0.50;;
20699;SDS011;10511;51.232;9.420;2023-08-24T10:07:50;0.60;;;0.60;;
20699;SDS011;10511;51.232;9.420;2023-08-24T10:10:19;0.60;;;0.60;;
20699;SDS011;10511;51.232;9.420;2023-08-24T10:12:50;0.50;;;0.50;;
20699;SDS011;10511;51.232;9.420;2023-08-24T10:15:18;0.60;;;0.60;;
20699;SDS011;10511;51.232;9.420;2023-08-24T10:17:48;0.50;;;0.50;;
20699;SDS011;10511;51.232;9.420;2023-08-24T10:20:17;0.60;;;0.60;;
20699;SDS011;10511;51.232;9.420;2023-08-24T10:22:45;0.53;;;0.53;;
20699;SDS011;10511;51.232;9.420;2023-08-24T10:25:14;0.50;;;0.50;;
20699;SDS011;10511;51.232;9.420;2023-08-24T10:27:44;0.50;;;0.50;;
20699;SDS011;10511;51.232;9.420;2023-08-24T10:30:13;0.53;;;0.53;;
20699;SDS011;10511;51.232;9.420;2023-08-24T10:32:43;0.50;;;0.50;;
20699;SDS011;10511;51.232;9.420;2023-08-24T10:35:14;0.50;;;0.50;;
20699;SDS011;10511;51.232;9.420;2023-08-24T10:37:43;0.50;;;0.50;;
20699;SDS011;10511;51.232;9.420;2023-08-24T10:40:12;0.57;;;0.57;;
20699;SDS011;10511;51.232;9.420;2023-08-24T10:42:43;0.60;;;0.60;;
20699;SDS011;10511;51.232;9.420;2023-08-24T10:45:12;0.60;;;0.60;;
20699;SDS011;10511;51.232;9.420;2023-08-24T10:47:45;0.50;;;0.50;;
20699;SDS011;10511;51.232;9.420;2023-08-24T10:50:12;0.50;;;0.50;;
20699;SDS011;10511;51.232;9.420;2023-08-24T10:52:42;0.50;;;0.50;;
20699;SDS011;10511;51.232;9.420;2023-08-24T10:55:23;0.50;;;0.50;;
20699;SDS011;10511;51.232;9.420;2023-08-24T10:57:58;0.50;;;0.50;;
20699;SDS011;10511;51.232;9.420;2023-08-24T11:00:26;0.50;;;0.50;;
20699;SDS011;10511;51.232;9.420;2023-08-24T11:02:55;0.50;;;0.50;;
20699;SDS011;10511;51.232;9.420;2023-08-24T11:05:23;0.50;;;0.50;;
20699;SDS011;10511;51.232;9.420;2023-08-24T11:07:54;0.60;;;0.60;;
20699;SDS011;10511;51.232;9.420;2023-08-24T11:10:22;0.50;;;0.50;;
20699;SDS011;10511;51.232;9.420;2023-08-24T11:13:09;0.50;;;0.50;;
20699;SDS011;10511;51.232;9.420;2023-08-24T11:15:38;0.50;;;0.50;;
20699;SDS011;10511;51.232;9.420;2023-08-24T11:18:14;0.50;;;0.50;;
20699;SDS011;10511;51.232;9.420;2023-08-24T11:20:51;0.50;;;0.50;;
20699;SDS011;10511;51.232;9.420;2023-08-24T11:23:19;0.40;;;0.40;;
20699;SDS011;10511;51.232;9.420;2023-08-24T11:25:48;0.40;;;0.40;;
20699;SDS011;10511;51.232;9.420;2023-08-24T11:28:16;0.40;;;0.40;;
20699;SDS011;10511;51.232;9.420;2023-08-24T11:30:45;0.43;;;0.43;;
20699;SDS011;10511;51.232;9.420;2023-08-24T11:33:12;0.40;;;0.40;;
20699;SDS011;10511;51.232;9.420;2023-08-24T11:35:42;0.40;;;0.40;;
20699;SDS011;10511;51.232;9.420;2023-08-24T11:38:10;0.40;;;0.40;;
20699;SDS011;10511;51.232;9.420;2023-08-24T11:40:38;0.50;;;0.50;;
20699;SDS011;10511;51.232;9.420;2023-08-24T11:43:05;0.50;;;0.50;;
20699;SDS011;10511;51.232;9.420;2023-08-24T11:45:32;0.40;;;0.40;;
20699;SDS011;10511;51.232;9.420;2023-08-24T11:48:01;0.40;;;0.40;;
20699;SDS011;10511;51.232;9.420;2023-08-24T11:50:32;0.40;;;0.40;;
20699;SDS011;10511;51.232;9.420;2023-08-24T11:53:00;0.50;;;0.50;;
20699;SDS011;10511;51.232;9.420;2023-08-24T11:55:27;0.40;;;0.40;;
20699;SDS011;10511;51.232;9.420;2023-08-24T11:57:54;0.50;;;0.50;;
20699;SDS011;10511;51.232;9.420;2023-08-24T12:00:24;0.40;;;0.40;;
20699;SDS011;10511;51.232;9.420;2023-08-24T12:02:51;0.40;;;0.40;;
20699;SDS011;10511;51.232;9.420;2023-08-24T12:05:22;0.50;;;0.50;;
20699;SDS011;10511;51.232;9.420;2023-08-24T12:07:52;0.50;;;0.50;;
20699;SDS011;10511;51.232;9.420;2023-08-24T12:10:20;0.43;;;0.43;;
20699;SDS011;10511;51.232;9.420;2023-08-24T12:12:47;0.50;;;0.50;;
20699;SDS011;10511;51.232;9.420;2023-08-24T12:15:15;0.50;;;0.50;;
20699;SDS011;10511;51.232;9.420;2023-08-24T12:17:43;0.50;;;0.50;;
20699;SDS011;10511;51.232;9.420;2023-08-24T12:20:16;0.40;;;0.40;;
20699;SDS011;10511;51.232;9.420;2023-08-24T12:22:44;0.50;;;0.50;;
20699;SDS011;10511;51.232;9.420;2023-08-24T12:25:18;0.40;;;0.40;;
20699;SDS011;10511;51.232;9.420;2023-08-24T12:27:48;0.40;;;0.40;;
20699;SDS011;10511;51.232;9.420;2023-08-24T12:30:15;0.40;;;0.40;;
20699;SDS011;10511;51.232;9.420;2023-08-24T12:32:43;0.40;;;0.40;;
20699;SDS011;10511;51.232;9.420;2023-08-24T12:35:11;0.40;;;0.40;;
20699;SDS011;10511;51.232;9.420;2023-08-24T12:37:40;0.40;;;0.40;;
20699;SDS011;10511;51.232;9.420;2023-08-24T12:40:07;0.40;;;0.40;;
20699;SDS011;10511;51.232;9.420;2023-08-24T12:42:36;0.40;;;0.40;;
20699;SDS011;10511;51.232;9.420;2023-08-24T12:45:04;0.40;;;0.40;;
20699;SDS011;10511;51.232;9.420;2023-08-24T12:47:31;0.40;;;0.40;;
20699;SDS011;10511;51.232;9.420;2023-08-24T12:50:03;0.40;;;0.40;;
20699;SDS011;10511;51.232;9.420;2023-08-24T12:52:31;0.50;;;0.50;;
20699;SDS011;10511;51.232;9.420;2023-08-24T12:54:59;0.40;;;0.40;;
20699;SDS011;10511;51.232;9.420;2023-08-24T12:57:26;0.40;;;0.40;;
20699;SDS011;10511;51.232;9.420;2023-08-24T12:59:54;0.40;;;0.40;;
20699;SDS011;10511;51.232;9.420;2023-08-24T13:02:21;0.40;;;0.40;;
20699;SDS011;10511;51.232;9.420;2023-08-24T13:04:48;0.40;;;0.40;;
20699;SDS011;10511;51.232;9.420;2023-08-24T13:07:15;0.43;;;0.43;;
20699;SDS011;10511;51.232;9.420;2023-08-24T13:09:42;0.40;;;0.40;;
20699;SDS011;10511;51.232;9.420;2023-08-24T13:12:09;0.40;;;0.40;;
20699;SDS011;10511;51.232;9.420;2023-08-24T13:14:36;0.40;;;0.40;;
20699;SDS011;10511;51.232;9.420;2023-08-24T13:17:04;0.40;;;0.40;;
20699;SDS011;10511;51.232;9.420;2023-08-24T13:19:31;0.40;;;0.40;;
20699;SDS011;10511;51.232;9.420;2023-08-24T13:21:58;0.40;;;0.40;;
20699;SDS011;10511;51.232;9.420;2023-08-24T13:24:25;0.40;;;0.40;;
20699;SDS011;10511;51.232;9.420;2023-08-24T13:26:52;0.40;;;0.40;;
20699;SDS011;10511;51.232;9.420;2023-08-24T13:29:18;0.40;;;0.40;;
20699;SDS011;10511;51.232;9.420;2023-08-24T13:31:45;0.40;;;0.40;;
20699;SDS011;10511;51.232;9.420;2023-08-24T13:34:14;0.47;;;0.47;;
20699;SDS011;10511;51.232;9.420;2023-08-24T13:36:41;0.40;;;0.40;;
20699;SDS011;10511;51.232;9.420;2023-08-24T13:39:08;0.50;;;0.50;;
20699;SDS011;10511;51.232;9.420;2023-08-24T13:41:35;0.40;;;0.40;;
20699;SDS011;10511;51.232;9.420;2023-08-24T13:44:02;0.40;;;0.40;;
20699;SDS011;10511;51.232;9.420;2023-08-24T13:46:30;0.40;;;0.40;;
20699;SDS011;10511;51.232;9.420;2023-08-24T13:48:57;0.50;;;0.50;;
20699;SDS011;10511;51.232;9.420;2023-08-24T13:51:25;0.40;;;0.40;;
20699;SDS011;10511;51.232;9.420;2023-08-24T13:53:52;0.40;;;0.40;;
20699;SDS011;10511;51.232;9.420;2023-08-24T13:56:19;0.40;;;0.40;;
20699;SDS011;10511;51.232;9.420;2023-08-24T13:58:46;0.40;;;0.40;;
20699;SDS011;10511;51.232;9.420;2023-08-24T14:01:13;0.40;;;0.40;;
20699;SDS011;10511;51.232;9.420;2023-08-24T14:03:40;0.50;;;0.50;;
20699;SDS011;10511;51.232;9.420;2023-08-24T14:06:08;0.40;;;0.40;;
20699;SDS011;10511;51.232;9.420;2023-08-24T14:08:37;0.50;;;0.50;;
20699;SDS011;10511;51.232;9.420;2023-08-24T14:11:04;0.40;;;0.40;;
20699;SDS011;10511;51.232;9.420;2023-08-24T14:13:31;0.40;;;0.40;;
20699;SDS011;10511;51.232;9.420;2023-08-24T14:15:58;0.40;;;0.40;;
20699;SDS011;10511;51.232;9.420;2023-08-24T14:18:25;0.40;;;0.40;;
20699;SDS011;10511;51.232;9.420;2023-08-24T14:20:53;0.43;;;0.43;;
20699;SDS011;10511;51.232;9.420;2023-08-24T14:23:20;0.47;;;0.47;;
20699;SDS011;10511;51.232;9.420;2023-08-24T14:25:48;0.40;;;0.40;;
20699;SDS011;10511;51.232;9.420;2023-08-24T14:28:21;0.40;;;0.40;;
20699;SDS011;10511;51.232;9.420;2023-08-24T14:30:48;0.50;;;0.50;;
20699;SDS011;10511;51.232;9.420;2023-08-24T14:33:16;0.40;;;0.40;;
20699;SDS011;10511;51.232;9.420;2023-08-24T14:35:49;0.40;;;0.40;;
20699;SDS011;10511;51.232;9.420;2023-08-24T14:38:17;0.40;;;0.40;;
20699;SDS011;10511;51.232;9.420;2023-08-24T14:40:44;0.50;;;0.50;;
20699;SDS011;10511;51.232;9.420;2023-08-24T14:43:12;0.50;;;0.50;;
20699;SDS011;10511;51.232;9.420;2023-08-24T14:45:39;0.50;;;0.50;;
20699;SDS011;10511;51.232;9.420;2023-08-24T14:48:06;0.40;;;0.40;;
20699;SDS011;10511;51.232;9.420;2023-08-24T14:50:33;0.40;;;0.40;;
20699;SDS011;10511;51.232;9.420;2023-08-24T14:53:00;0.40;;;0.40;;